sensor_id;sensor_type;location;lat;lon;timestamp;temperature;humidity
37488;DHT22;23342;52.620;13.300;2022-12-26T06:06:21;10.10;99.90
37488;DHT22;23342;52.620;13.300;2022-12-26T06:08:48;10.10;99.90
37488;DHT22;23342;52.620;13.300;2022-12-26T06:11:15;10.00;99.90
37488;DHT22;23342;52.620;13.300;2022-12-26T06:13:41;10.10;99.90
37488;DHT22;23342;52.620;13.300;2022-12-26T06:16:09;10.20;99.90
37488;DHT22;23342;52.620;13.300;2022-12-26T06:18:36;10.20;99.90
37488;DHT22;23342;52.620;13.300;2022-12-26T06:21:06;10.10;99.90
37488;DHT22;23342;52.620;13.300;2022-12-26T06:23:34;10.10;99.90
37488;DHT22;23342;52.620;13.300;2022-12-26T06:25:59;10.10;99.90
37488;DHT22;23342;52.620;13.300;2022-12-26T06:28:25;10.10;99.90
37488;DHT22;23342;52.620;13.300;2022-12-26T06:30:51;10.10;99.90
37488;DHT22;23342;52.620;13.300;2022-12-26T06:33:17;10.10;99.90
37488;DHT22;23342;52.620;13.300;2022-12-26T06:35:43;10.10;99.90
37488;DHT22;23342;52.620;13.300;2022-12-26T06:38:09;10.10;99.90
37488;DHT22;23342;52.620;13.300;2022-12-26T06:40:41;10.10;99.90
37488;DHT22;23342;52.620;13.300;2022-12-26T06:43:07;10.10;99.90
37488;DHT22;23342;52.620;13.300;2022-12-26T06:45:33;10.10;99.90
37488;DHT22;23342;52.620;13.300;2022-12-26T06:47:59;10.10;99.90
37488;DHT22;23342;52.620;13.300;2022-12-26T06:50:26;10.10;99.90
37488;DHT22;23342;52.620;13.300;2022-12-26T06:52:51;10.20;99.90
37488;DHT22;23342;52.620;13.300;2022-12-26T06:55:17;10.20;99.90
37488;DHT22;23342;52.620;13.300;2022-12-26T06:57:42;10.20;99.90
37488;DHT22;23342;52.620;13.300;2022-12-26T07:00:09;10.20;99.90
37488;DHT22;23342;52.620;13.300;2022-12-26T07:02:35;10.20;99.90
37488;DHT22;23342;52.620;13.300;2022-12-26T07:05:00;10.10;99.90
37488;DHT22;23342;52.620;13.300;2022-12-26T07:07:26;10.20;99.90
37488;DHT22;23342;52.620;13.300;2022-12-26T07:09:51;10.20;99.90
37488;DHT22;23342;52.620;13.300;2022-12-26T07:12:17;10.20;99.90
37488;DHT22;23342;52.620;13.300;2022-12-26T07:14:46;10.30;99.90
37488;DHT22;23342;52.620;13.300;2022-12-26T07:17:11;10.30;99.90
37488;DHT22;23342;52.620;13.300;2022-12-26T07:19:37;10.30;99.90
37488;DHT22;23342;52.620;13.300;2022-12-26T07:22:02;10.30;99.90
37488;DHT22;23342;52.620;13.300;2022-12-26T07:24:28;10.30;99.90
37488;DHT22;23342;52.620;13.300;2022-12-26T07:26:53;10.20;99.90
37488;DHT22;23342;52.620;13.300;2022-12-26T07:29:20;10.20;99.90
37488;DHT22;23342;52.620;13.300;2022-12-26T07:31:47;10.20;99.90
37488;DHT22;23342;52.620;13.300;2022-12-26T07:34:13;10.20;99.90
37488;DHT22;23342;52.620;13.300;2022-12-26T07:36:40;10.20;99.90
37488;DHT22;23342;52.620;13.300;2022-12-26T07:39:06;10.20;99.90
37488;DHT22;23342;52.620;13.300;2022-12-26T07:41:32;10.20;99.90
37488;DHT22;23342;52.620;13.300;2022-12-26T07:44:16;10.20;99.90
37488;DHT22;23342;52.620;13.300;2022-12-26T07:46:42;10.20;99.90
37488;DHT22;23342;52.620;13.300;2022-12-26T07:49:09;10.20;99.90
37488;DHT22;23342;52.620;13.300;2022-12-26T07:51:35;10.20;99.90
37488;DHT22;23342;52.620;13.300;2022-12-26T07:54:00;10.20;99.90
37488;DHT22;23342;52.620;13.300;2022-12-26T07:56:26;10.20;99.90
37488;DHT22;23342;52.620;13.300;2022-12-26T07:58:51;10.20;99.90
37488;DHT22;23342;52.620;13.300;2022-12-26T08:01:17;10.20;99.90
37488;DHT22;23342;52.620;13.300;2022-12-26T08:03:43;10.30;99.90
37488;DHT22;23342;52.620;13.300;2022-12-26T08:06:10;10.30;99.90
37488;DHT22;23342;52.620;13.300;2022-12-26T08:08:36;10.30;99.90
37488;DHT22;23342;52.620;13.300;2022-12-26T08:11:03;10.30;99.90
37488;DHT22;23342;52.620;13.300;2022-12-26T08:13:30;10.30;99.90
37488;DHT22;23342;52.620;13.300;2022-12-26T08:15:56;10.30;99.90
37488;DHT22;23342;52.620;13.300;2022-12-26T08:18:22;10.30;99.90
37488;DHT22;23342;52.620;13.300;2022-12-26T08:20:48;10.20;99.90
37488;DHT22;23342;52.620;13.300;2022-12-26T08:23:14;10.20;99.90
37488;DHT22;23342;52.620;13.300;2022-12-26T08:25:40;10.20;99.90
37488;DHT22;23342;52.620;13.300;2022-12-26T08:28:05;10.10;99.90
37488;DHT22;23342;52.620;13.300;2022-12-26T08:30:31;10.10;99.90
37488;DHT22;23342;52.620;13.300;2022-12-26T08:32:56;10.20;99.90
37488;DHT22;23342;52.620;13.300;2022-12-26T08:35:22;10.10;99.90
37488;DHT22;23342;52.620;13.300;2022-12-26T08:37:47;10.20;99.90
37488;DHT22;23342;52.620;13.300;2022-12-26T08:40:13;10.10;99.90
37488;DHT22;23342;52.620;13.300;2022-12-26T08:42:39;10.10;99.90
37488;DHT22;23342;52.620;13.300;2022-12-26T08:45:05;10.10;99.90
37488;DHT22;23342;52.620;13.300;2022-12-26T08:47:31;10.10;99.90
37488;DHT22;23342;52.620;13.300;2022-12-26T08:49:56;10.10;99.90
37488;DHT22;23342;52.620;13.300;2022-12-26T08:52:21;10.10;99.90
37488;DHT22;23342;52.620;13.300;2022-12-26T08:54:47;10.10;99.90
37488;DHT22;23342;52.620;13.300;2022-12-26T08:57:12;10.10;99.90
37488;DHT22;23342;52.620;13.300;2022-12-26T08:59:38;10.10;99.90
37488;DHT22;23342;52.620;13.300;2022-12-26T09:02:04;10.10;99.90
37488;DHT22;23342;52.620;13.300;2022-12-26T09:04:29;10.10;99.90
37488;DHT22;23342;52.620;13.300;2022-12-26T09:06:55;10.10;99.90
37488;DHT22;23342;52.620;13.300;2022-12-26T09:09:20;10.10;99.90
37488;DHT22;23342;52.620;13.300;2022-12-26T09:11:46;10.10;99.90
37488;DHT22;23342;52.620;13.300;2022-12-26T09:14:11;10.10;99.90
37488;DHT22;23342;52.620;13.300;2022-12-26T09:16:40;10.20;99.90
37488;DHT22;23342;52.620;13.300;2022-12-26T09:19:09;10.20;99.90
37488;DHT22;23342;52.620;13.300;2022-12-26T09:21:37;10.20;99.90
37488;DHT22;23342;52.620;13.300;2022-12-26T09:24:05;10.20;99.90
37488;DHT22;23342;52.620;13.300;2022-12-26T09:26:32;10.30;99.90
37488;DHT22;23342;52.620;13.300;2022-12-26T09:28:58;10.30;99.90
37488;DHT22;23342;52.620;13.300;2022-12-26T09:31:26;10.30;99.90
37488;DHT22;23342;52.620;13.300;2022-12-26T09:33:52;10.30;99.90
37488;DHT22;23342;52.620;13.300;2022-12-26T09:36:21;10.30;99.90
37488;DHT22;23342;52.620;13.300;2022-12-26T09:38:47;10.30;99.90
37488;DHT22;23342;52.620;13.300;2022-12-26T09:45:31;10.30;99.90
37488;DHT22;23342;52.620;13.300;2022-12-26T09:48:50;10.40;99.90
37488;DHT22;23342;52.620;13.300;2022-12-26T09:51:18;10.40;99.90
37488;DHT22;23342;52.620;13.300;2022-12-26T09:53:45;10.40;99.90
37488;DHT22;23342;52.620;13.300;2022-12-26T09:56:17;10.40;99.90
37488;DHT22;23342;52.620;13.300;2022-12-26T09:58:51;10.40;99.90
37488;DHT22;23342;52.620;13.300;2022-12-26T10:01:27;10.50;99.90
37488;DHT22;23342;52.620;13.300;2022-12-26T10:03:56;10.50;99.90
37488;DHT22;23342;52.620;13.300;2022-12-26T10:11:59;10.50;99.90
37488;DHT22;23342;52.620;13.300;2022-12-26T10:16:02;10.50;99.90
37488;DHT22;23342;52.620;13.300;2022-12-26T10:19:10;10.50;99.90
37488;DHT22;23342;52.620;13.300;2022-12-26T10:22:43;10.60;99.90
37488;DHT22;23342;52.620;13.300;2022-12-26T10:25:24;10.70;99.90
37488;DHT22;23342;52.620;13.300;2022-12-26T10:27:53;10.70;99.90
37488;DHT22;23342;52.620;13.300;2022-12-26T10:30:27;10.60;99.90
37488;DHT22;23342;52.620;13.300;2022-12-26T10:33:01;10.60;99.90
37488;DHT22;23342;52.620;13.300;2022-12-26T10:35:41;10.50;99.90
37488;DHT22;23342;52.620;13.300;2022-12-26T10:38:14;10.50;99.90
37488;DHT22;23342;52.620;13.300;2022-12-26T10:40:43;10.50;99.90
37488;DHT22;23342;52.620;13.300;2022-12-26T10:43:27;10.50;99.90
37488;DHT22;23342;52.620;13.300;2022-12-26T10:51:00;10.50;99.90
37488;DHT22;23342;52.620;13.300;2022-12-26T10:53:27;10.40;99.90
37488;DHT22;23342;52.620;13.300;2022-12-26T10:55:52;10.40;99.90
37488;DHT22;23342;52.620;13.300;2022-12-26T10:58:27;10.40;99.90
37488;DHT22;23342;52.620;13.300;2022-12-26T11:00:53;10.40;99.90
37488;DHT22;23342;52.620;13.300;2022-12-26T11:03:20;10.30;99.90
37488;DHT22;23342;52.620;13.300;2022-12-26T11:05:48;10.30;99.90
37488;DHT22;23342;52.620;13.300;2022-12-26T11:08:46;10.30;99.90
37488;DHT22;23342;52.620;13.300;2022-12-26T11:11:19;10.30;99.90
37488;DHT22;23342;52.620;13.300;2022-12-26T11:13:48;10.20;99.90
37488;DHT22;23342;52.620;13.300;2022-12-26T11:16:30;10.30;99.90
37488;DHT22;23342;52.620;13.300;2022-12-26T11:18:57;10.30;99.90
37488;DHT22;23342;52.620;13.300;2022-12-26T11:21:28;10.30;99.90
37488;DHT22;23342;52.620;13.300;2022-12-26T11:24:18;10.20;99.90
37488;DHT22;23342;52.620;13.300;2022-12-26T11:26:45;10.20;99.90
37488;DHT22;23342;52.620;13.300;2022-12-26T11:29:13;10.20;99.90
37488;DHT22;23342;52.620;13.300;2022-12-26T11:32:02;10.20;99.90
37488;DHT22;23342;52.620;13.300;2022-12-26T11:34:40;10.20;99.90
37488;DHT22;23342;52.620;13.300;2022-12-26T11:37:27;10.20;99.90
37488;DHT22;23342;52.620;13.300;2022-12-26T11:39:53;10.20;99.90
37488;DHT22;23342;52.620;13.300;2022-12-26T11:42:22;10.20;99.90
37488;DHT22;23342;52.620;13.300;2022-12-26T11:44:50;10.20;99.90
37488;DHT22;23342;52.620;13.300;2022-12-26T11:47:20;10.30;99.90
37488;DHT22;23342;52.620;13.300;2022-12-26T11:50:11;10.30;99.90
37488;DHT22;23342;52.620;13.300;2022-12-26T11:53:04;10.40;99.90
37488;DHT22;23342;52.620;13.300;2022-12-26T11:55:33;10.50;99.90
37488;DHT22;23342;52.620;13.300;2022-12-26T11:58:17;10.50;99.90
37488;DHT22;23342;52.620;13.300;2022-12-26T12:01:16;10.50;99.90
37488;DHT22;23342;52.620;13.300;2022-12-26T12:03:47;10.50;99.90
37488;DHT22;23342;52.620;13.300;2022-12-26T12:07:03;10.50;99.90
37488;DHT22;23342;52.620;13.300;2022-12-26T12:09:46;10.40;99.90
37488;DHT22;23342;52.620;13.300;2022-12-26T12:12:47;10.40;99.90
37488;DHT22;23342;52.620;13.300;2022-12-26T12:15:41;10.40;99.90
37488;DHT22;23342;52.620;13.300;2022-12-26T12:18:30;10.30;99.90
37488;DHT22;23342;52.620;13.300;2022-12-26T12:21:44;10.30;99.90
37488;DHT22;23342;52.620;13.300;2022-12-26T12:29:16;10.20;99.90
37488;DHT22;23342;52.620;13.300;2022-12-26T12:32:01;10.20;99.90
37488;DHT22;23342;52.620;13.300;2022-12-26T12:36:09;10.10;99.90
37488;DHT22;23342;52.620;13.300;2022-12-26T12:39:00;10.10;99.90
37488;DHT22;23342;52.620;13.300;2022-12-26T12:42:43;10.10;99.90
37488;DHT22;23342;52.620;13.300;2022-12-26T12:45:28;10.10;99.90
37488;DHT22;23342;52.620;13.300;2022-12-26T12:48:18;10.10;99.90
37488;DHT22;23342;52.620;13.300;2022-12-26T12:54:44;10.10;99.90
37488;DHT22;23342;52.620;13.300;2022-12-26T12:57:41;10.20;99.90
37488;DHT22;23342;52.620;13.300;2022-12-26T13:00:21;10.20;99.90
37488;DHT22;23342;52.620;13.300;2022-12-26T13:03:15;10.20;99.90
37488;DHT22;23342;52.620;13.300;2022-12-26T13:12:37;10.20;99.90
37488;DHT22;23342;52.620;13.300;2022-12-26T13:15:14;10.20;99.90
37488;DHT22;23342;52.620;13.300;2022-12-26T13:17:48;10.10;99.90
37488;DHT22;23342;52.620;13.300;2022-12-26T13:20:46;10.10;99.90
37488;DHT22;23342;52.620;13.300;2022-12-26T13:23:36;10.10;99.90
37488;DHT22;23342;52.620;13.300;2022-12-26T13:26:26;10.20;99.90
37488;DHT22;23342;52.620;13.300;2022-12-26T13:29:18;10.20;99.90
37488;DHT22;23342;52.620;13.300;2022-12-26T13:31:45;10.20;99.90
37488;DHT22;23342;52.620;13.300;2022-12-26T13:34:16;10.20;99.90
37488;DHT22;23342;52.620;13.300;2022-12-26T13:36:47;10.20;99.90
37488;DHT22;23342;52.620;13.300;2022-12-26T13:39:23;10.30;99.90
37488;DHT22;23342;52.620;13.300;2022-12-26T13:45:46;10.30;99.90
37488;DHT22;23342;52.620;13.300;2022-12-26T13:48:55;10.40;99.90
37488;DHT22;23342;52.620;13.300;2022-12-26T13:51:47;10.40;99.90
37488;DHT22;23342;52.620;13.300;2022-12-26T13:54:15;10.40;99.90
37488;DHT22;23342;52.620;13.300;2022-12-26T13:58:28;10.40;99.90
37488;DHT22;23342;52.620;13.300;2022-12-26T14:01:16;10.40;99.90
37488;DHT22;23342;52.620;13.300;2022-12-26T14:04:14;10.40;99.90
37488;DHT22;23342;52.620;13.300;2022-12-26T14:10:17;10.30;99.90
37488;DHT22;23342;52.620;13.300;2022-12-26T14:13:45;10.30;99.90
37488;DHT22;23342;52.620;13.300;2022-12-26T14:22:35;10.40;99.90
37488;DHT22;23342;52.620;13.300;2022-12-26T14:25:48;10.30;99.90
37488;DHT22;23342;52.620;13.300;2022-12-26T14:35:32;10.10;99.90
37488;DHT22;23342;52.620;13.300;2022-12-26T14:45:52;10.00;99.90
37488;DHT22;23342;52.620;13.300;2022-12-26T14:48:44;9.90;99.90
37488;DHT22;23342;52.620;13.300;2022-12-26T14:51:32;9.90;99.90
37488;DHT22;23342;52.620;13.300;2022-12-26T14:54:35;9.80;99.90
37488;DHT22;23342;52.620;13.300;2022-12-26T14:57:41;9.90;99.90
37488;DHT22;23342;52.620;13.300;2022-12-26T15:00:30;9.90;99.90
37488;DHT22;23342;52.620;13.300;2022-12-26T15:11:37;10.00;99.90
37488;DHT22;23342;52.620;13.300;2022-12-26T15:14:32;10.00;99.90
37488;DHT22;23342;52.620;13.300;2022-12-26T15:38:39;10.00;99.90
37488;DHT22;23342;52.620;13.300;2022-12-26T15:41:28;9.90;99.90
37488;DHT22;23342;52.620;13.300;2022-12-26T15:44:22;9.90;99.90
37488;DHT22;23342;52.620;13.300;2022-12-26T15:47:36;10.00;99.90
37488;DHT22;23342;52.620;13.300;2022-12-26T15:56:06;9.90;99.90
37488;DHT22;23342;52.620;13.300;2022-12-26T15:59:00;9.90;99.90
37488;DHT22;23342;52.620;13.300;2022-12-26T16:01:40;9.80;99.90
37488;DHT22;23342;52.620;13.300;2022-12-26T16:04:29;9.80;99.90
37488;DHT22;23342;52.620;13.300;2022-12-26T16:07:51;9.80;99.90
37488;DHT22;23342;52.620;13.300;2022-12-26T16:10:37;9.80;99.90
37488;DHT22;23342;52.620;13.300;2022-12-26T16:13:20;9.80;99.90
37488;DHT22;23342;52.620;13.300;2022-12-26T16:15:56;9.80;99.90
37488;DHT22;23342;52.620;13.300;2022-12-26T16:18:29;9.80;99.90
37488;DHT22;23342;52.620;13.300;2022-12-26T16:21:04;9.80;99.90
37488;DHT22;23342;52.620;13.300;2022-12-26T16:23:50;9.80;99.90
37488;DHT22;23342;52.620;13.300;2022-12-26T16:26:21;9.70;99.90
37488;DHT22;23342;52.620;13.300;2022-12-26T16:28:48;9.70;99.90
37488;DHT22;23342;52.620;13.300;2022-12-26T16:31:23;9.70;99.90
37488;DHT22;23342;52.620;13.300;2022-12-26T16:33:50;9.70;99.90
37488;DHT22;23342;52.620;13.300;2022-12-26T16:36:23;9.60;99.90
37488;DHT22;23342;52.620;13.300;2022-12-26T16:38:50;9.60;99.90
37488;DHT22;23342;52.620;13.300;2022-12-26T16:41:28;9.60;99.90
37488;DHT22;23342;52.620;13.300;2022-12-26T16:43:55;9.60;99.90
37488;DHT22;23342;52.620;13.300;2022-12-26T16:46:27;9.60;99.90
37488;DHT22;23342;52.620;13.300;2022-12-26T16:48:58;9.60;99.90
37488;DHT22;23342;52.620;13.300;2022-12-26T16:51:38;9.60;99.90
37488;DHT22;23342;52.620;13.300;2022-12-26T16:54:25;9.60;99.90
37488;DHT22;23342;52.620;13.300;2022-12-26T16:57:02;9.60;99.90
37488;DHT22;23342;52.620;13.300;2022-12-26T16:59:37;9.70;99.90
37488;DHT22;23342;52.620;13.300;2022-12-26T17:02:04;9.70;99.90
37488;DHT22;23342;52.620;13.300;2022-12-26T17:04:29;9.60;99.90
37488;DHT22;23342;52.620;13.300;2022-12-26T17:07:01;9.60;99.90
37488;DHT22;23342;52.620;13.300;2022-12-26T17:09:31;9.50;99.90
37488;DHT22;23342;52.620;13.300;2022-12-26T17:12:04;9.40;99.90
37488;DHT22;23342;52.620;13.300;2022-12-26T17:14:37;9.40;99.90
37488;DHT22;23342;52.620;13.300;2022-12-26T17:17:06;9.40;99.90
37488;DHT22;23342;52.620;13.300;2022-12-26T17:19:35;9.30;99.90
37488;DHT22;23342;52.620;13.300;2022-12-26T17:24:01;9.30;99.90
37488;DHT22;23342;52.620;13.300;2022-12-26T17:26:29;9.30;99.90
37488;DHT22;23342;52.620;13.300;2022-12-26T17:28:55;9.30;99.90
37488;DHT22;23342;52.620;13.300;2022-12-26T17:31:34;9.30;99.90
37488;DHT22;23342;52.620;13.300;2022-12-26T17:34:04;9.20;99.90
37488;DHT22;23342;52.620;13.300;2022-12-26T17:36:31;9.20;99.90
37488;DHT22;23342;52.620;13.300;2022-12-26T17:39:09;9.20;99.90
37488;DHT22;23342;52.620;13.300;2022-12-26T17:41:40;9.20;99.90
37488;DHT22;23342;52.620;13.300;2022-12-26T17:44:35;9.10;99.90
37488;DHT22;23342;52.620;13.300;2022-12-26T17:47:13;9.10;99.90
37488;DHT22;23342;52.620;13.300;2022-12-26T17:49:39;9.10;99.90
37488;DHT22;23342;52.620;13.300;2022-12-26T17:52:05;9.10;99.90
37488;DHT22;23342;52.620;13.300;2022-12-26T17:54:31;9.10;99.90
37488;DHT22;23342;52.620;13.300;2022-12-26T17:56:56;9.10;99.90
37488;DHT22;23342;52.620;13.300;2022-12-26T17:59:22;9.00;99.90
37488;DHT22;23342;52.620;13.300;2022-12-26T18:01:47;9.00;99.90
37488;DHT22;23342;52.620;13.300;2022-12-26T18:04:12;9.00;99.90
37488;DHT22;23342;52.620;13.300;2022-12-26T18:06:38;9.20;99.90
37488;DHT22;23342;52.620;13.300;2022-12-26T18:09:05;9.10;99.90
37488;DHT22;23342;52.620;13.300;2022-12-26T18:11:31;9.00;99.90
37488;DHT22;23342;52.620;13.300;2022-12-26T18:13:56;9.00;99.90
37488;DHT22;23342;52.620;13.300;2022-12-26T18:16:22;9.00;99.90
37488;DHT22;23342;52.620;13.300;2022-12-26T18:18:52;8.90;99.90
37488;DHT22;23342;52.620;13.300;2022-12-26T18:21:20;8.90;99.90
37488;DHT22;23342;52.620;13.300;2022-12-26T18:23:46;8.90;99.90
37488;DHT22;23342;52.620;13.300;2022-12-26T18:26:18;8.90;99.90
37488;DHT22;23342;52.620;13.300;2022-12-26T18:28:45;8.90;99.90
37488;DHT22;23342;52.620;13.300;2022-12-26T18:31:14;8.90;99.90
37488;DHT22;23342;52.620;13.300;2022-12-26T18:33:40;8.90;99.90
37488;DHT22;23342;52.620;13.300;2022-12-26T18:36:10;8.80;99.90
37488;DHT22;23342;52.620;13.300;2022-12-26T18:38:36;8.80;99.90
37488;DHT22;23342;52.620;13.300;2022-12-26T18:41:01;8.80;99.90
37488;DHT22;23342;52.620;13.300;2022-12-26T18:43:27;8.80;99.90
37488;DHT22;23342;52.620;13.300;2022-12-26T18:45:52;8.80;99.90
37488;DHT22;23342;52.620;13.300;2022-12-26T18:48:18;8.80;99.90
37488;DHT22;23342;52.620;13.300;2022-12-26T18:50:45;8.80;99.90
37488;DHT22;23342;52.620;13.300;2022-12-26T18:53:11;8.70;99.90
37488;DHT22;23342;52.620;13.300;2022-12-26T18:55:37;8.70;99.90
37488;DHT22;23342;52.620;13.300;2022-12-26T18:58:04;8.70;99.90
37488;DHT22;23342;52.620;13.300;2022-12-26T19:00:30;8.70;99.90
37488;DHT22;23342;52.620;13.300;2022-12-26T19:02:55;8.60;99.90
37488;DHT22;23342;52.620;13.300;2022-12-26T19:05:27;8.60;99.90
37488;DHT22;23342;52.620;13.300;2022-12-26T19:07:56;8.60;99.90
37488;DHT22;23342;52.620;13.300;2022-12-26T19:10:24;8.50;99.90
37488;DHT22;23342;52.620;13.300;2022-12-26T19:12:50;8.60;99.90
37488;DHT22;23342;52.620;13.300;2022-12-26T19:15:15;8.50;99.90
37488;DHT22;23342;52.620;13.300;2022-12-26T19:17:41;8.50;99.90
37488;DHT22;23342;52.620;13.300;2022-12-26T19:20:19;8.50;99.90
37488;DHT22;23342;52.620;13.300;2022-12-26T19:22:46;8.40;99.90
37488;DHT22;23342;52.620;13.300;2022-12-26T19:25:12;8.20;99.90
